Aérodrome :
LOGIN :

S'inscrire | Disclaimer

   EN    FR    IT 

 










Légende :    VFR   VFR Marginal   IFR   IFR Intensif   IFR Très Intensif
Visi : 
Plafond : 
>= 8 km
>= 3000ft
5 à 8 km
1000 à 3000 ft
1500m à 5 km
500 à 1000 ft
800 à 1500m
200 à 500 ft
< 800m
< 200 ft
Symboles :   Orages  Brouillard  Fortes neiges  Fortes précipitations  Vent > 20 kt
SIGMETs :   Divers  Orages  Givrage  Turbulence  Onde Orograph.  Cendres Volcan.






- Altitude de l'aérodrome : 231 ft
- Code IATA : WTN


EGXW - RAF Waddington

DERNIER METAR :
  • 101150Z 29009KT 9999 SCT028 BKN070 15/07 Q1017 TEMPO -SHRA SCT024 RMK BLU TEMPO WHT

METARs EXPIRÉS :
  • 101120Z 32010KT 9999 SCT033 SCT070 16/08 Q1016 TEMPO -SHRA SCT024 RMK BLU TEMPO WHT
  • 101050Z 32011KT 9999 SCT028 SCT070 17/09 Q1016 NOSIG RMK BLU BLU
  • 101020Z 31013KT 9999 SCT028 SCT060 16/10 Q1016 TEMPO SCT020 RMK BLU TEMPO WHT
  • 100950Z 32013KT 9999 SCT025 SCT055 15/09 Q1016 NOSIG RMK BLU BLU
  • 100921Z 30013KT 9999 FEW014 SCT020 14/09 Q1016 TEMPO SCT025 RMK WHT TEMPO BLU

TAF TAF EGXW
Valide du 10 à 12h jusqu'au 11 à 06h UTC


101044Z 1012/1106 31012KT 9999 SCT030
PROB30
TEMPO 1012/1019 5000 SHRA BKN024CB



MET'MAP, la Météo Aéronautique d'un coup d'oeil ! - Copyright ORBIFLY Décembre 2007 - Disclaimer

ORBIFLY MET'MAP TEAM :

Programmation & Développement : Alexandra Zaïnal
Sur une idée originale de : Baudouin d'Aumeries
Assistance à la programmation : Marc-Olivier Méhu
Soutien technique & logistique : Manuel Goepfert

Contact : metmap@orbifly.com




SOURCES & CREDITS :

   NOAA